createdAt,value
2022-12-20T00:02:26.756Z,11.30
2022-12-20T00:04:57.105Z,11.40
2022-12-20T00:07:30.377Z,11.30
2022-12-20T00:10:00.708Z,11.40
2022-12-20T00:12:31.345Z,11.30
2022-12-20T00:15:01.648Z,11.40
2022-12-20T00:17:32.029Z,11.30
2022-12-20T00:20:02.312Z,11.30
2022-12-20T00:22:35.273Z,11.30
2022-12-20T00:25:05.565Z,11.30
2022-12-20T00:27:35.895Z,11.30
2022-12-20T00:30:06.732Z,11.40
2022-12-20T00:32:37.044Z,11.40
2022-12-20T00:35:08.015Z,11.30
2022-12-20T00:37:41.912Z,11.30
2022-12-20T00:40:13.147Z,11.40
2022-12-20T00:42:43.503Z,11.30
2022-12-20T00:45:14.830Z,11.30
2022-12-20T00:47:45.172Z,11.20
2022-12-20T00:50:15.809Z,11.20
2022-12-20T00:52:48.707Z,11.20
2022-12-20T00:55:19.240Z,11.20
2022-12-20T00:57:49.545Z,11.20
2022-12-20T01:00:20.870Z,11.20
2022-12-20T01:02:51.298Z,11.30
2022-12-20T01:05:21.662Z,11.30
2022-12-20T01:07:54.637Z,11.30
2022-12-20T01:10:25.213Z,11.30
2022-12-20T01:12:55.725Z,11.30
2022-12-20T01:15:26.621Z,11.40
2022-12-20T01:17:58.113Z,11.50
2022-12-20T01:20:28.459Z,11.40
2022-12-20T01:23:01.385Z,11.40
2022-12-20T01:25:31.808Z,11.40
2022-12-20T01:28:02.183Z,11.40
2022-12-20T01:30:32.667Z,11.40
2022-12-20T01:33:03.043Z,11.40
2022-12-20T01:35:33.362Z,11.40
2022-12-20T01:38:06.276Z,11.30
2022-12-20T01:40:36.610Z,11.40
2022-12-20T01:43:06.934Z,11.30
2022-12-20T01:45:37.411Z,11.40
2022-12-20T01:48:08.767Z,11.40
2022-12-20T01:50:39.656Z,11.40
2022-12-20T01:53:13.829Z,11.30
2022-12-20T01:55:44.540Z,11.30
2022-12-20T01:58:17.272Z,11.30
2022-12-20T02:00:47.828Z,11.30
2022-12-20T02:03:19.788Z,11.30
2022-12-20T02:05:50.179Z,11.30
2022-12-20T02:08:23.990Z,11.20
2022-12-20T02:11:09.346Z,11.30
2022-12-20T02:13:48.961Z,11.20
2022-12-20T02:16:27.697Z,11.30
2022-12-20T02:19:06.700Z,11.30
2022-12-20T02:21:42.421Z,11.30
2022-12-20T02:24:42.271Z,11.30
2022-12-20T02:27:44.117Z,11.30
2022-12-20T02:30:19.242Z,11.30
2022-12-20T02:32:55.888Z,11.30
2022-12-20T02:35:29.453Z,11.30
2022-12-20T02:38:02.495Z,11.30
2022-12-20T02:40:37.928Z,11.30
2022-12-20T02:43:31.725Z,11.40
2022-12-20T02:46:04.458Z,11.30
2022-12-20T02:48:37.171Z,11.30
2022-12-20T02:51:09.248Z,11.40
2022-12-20T02:53:42.675Z,11.40
2022-12-20T02:56:19.939Z,11.30
2022-12-20T02:58:55.497Z,11.40
2022-12-20T03:01:33.495Z,11.30
2022-12-20T03:04:04.800Z,11.30
2022-12-20T03:06:35.369Z,11.30
2022-12-20T03:09:06.000Z,11.40
2022-12-20T03:11:39.183Z,11.30
2022-12-20T03:14:10.223Z,11.30
2022-12-20T03:16:43.305Z,11.30
2022-12-20T03:19:13.765Z,11.30
2022-12-20T03:21:44.304Z,11.30
2022-12-20T03:24:17.307Z,11.30
2022-12-20T03:26:47.991Z,11.30
2022-12-20T03:29:19.282Z,11.30
2022-12-20T03:31:52.464Z,11.30
2022-12-20T03:34:23.023Z,11.30
2022-12-20T03:36:53.305Z,11.30
2022-12-20T03:39:23.686Z,11.40
2022-12-20T03:41:57.073Z,11.40
2022-12-20T03:44:27.975Z,11.30
2022-12-20T03:47:01.081Z,11.30
2022-12-20T03:49:32.316Z,11.40
2022-12-20T03:52:02.776Z,11.30
2022-12-20T03:54:33.386Z,11.40
2022-12-20T03:57:17.067Z,11.40
2022-12-20T03:59:49.377Z,11.30
2022-12-20T04:02:25.004Z,11.30
2022-12-20T04:04:56.432Z,11.30
2022-12-20T04:07:26.898Z,11.30
2022-12-20T04:09:57.376Z,11.30
2022-12-20T04:12:27.939Z,11.20
2022-12-20T04:14:58.250Z,11.20
2022-12-20T04:17:32.057Z,11.20
2022-12-20T04:20:19.148Z,11.20
2022-12-20T04:22:55.442Z,11.20
2022-12-20T04:25:27.214Z,11.20
2022-12-20T04:27:59.253Z,11.20
2022-12-20T04:30:29.882Z,11.20
2022-12-20T04:33:04.516Z,11.20
2022-12-20T04:35:35.580Z,11.20
2022-12-20T04:38:06.317Z,11.20
2022-12-20T04:40:36.928Z,11.20
2022-12-20T04:43:10.562Z,11.20
2022-12-20T04:45:40.871Z,11.20
2022-12-20T04:48:46.126Z,11.20
2022-12-20T04:51:04.750Z,11.30
2022-12-20T04:53:50.751Z,11.20
2022-12-20T04:56:53.297Z,11.30
2022-12-20T04:59:26.090Z,11.20
2022-12-20T05:01:58.466Z,11.30
2022-12-20T05:04:54.472Z,11.30
2022-12-20T05:07:25.037Z,11.20
2022-12-20T05:09:57.921Z,11.20
2022-12-20T05:12:28.324Z,11.20
2022-12-20T05:15:01.123Z,11.30
2022-12-20T05:17:31.409Z,11.30
2022-12-20T05:20:07.162Z,11.30
2022-12-20T05:22:50.005Z,11.30
2022-12-20T05:25:32.872Z,11.30
2022-12-20T05:28:07.786Z,11.30
2022-12-20T05:30:40.441Z,11.30
2022-12-20T05:33:12.744Z,11.30
2022-12-20T05:35:47.874Z,11.30
2022-12-20T05:38:19.395Z,11.20
2022-12-20T05:40:51.473Z,11.20
2022-12-20T05:43:22.975Z,11.20
2022-12-20T05:45:56.257Z,11.30
2022-12-20T05:48:36.061Z,11.20
2022-12-20T05:51:10.806Z,11.20
2022-12-20T05:53:56.141Z,11.20
2022-12-20T05:56:41.545Z,11.20
2022-12-20T05:59:12.274Z,11.20
2022-12-20T06:01:43.123Z,11.30
2022-12-20T06:04:13.605Z,11.20
2022-12-20T06:06:47.601Z,11.20
2022-12-20T06:09:22.284Z,11.20
2022-12-20T06:12:05.200Z,11.20
2022-12-20T06:14:37.576Z,11.20
2022-12-20T06:17:08.236Z,11.20
2022-12-20T06:19:40.281Z,11.20
2022-12-20T06:22:15.113Z,11.20
2022-12-20T06:24:49.388Z,11.20
2022-12-20T06:27:23.991Z,11.20
2022-12-20T06:30:03.465Z,11.20
2022-12-20T06:32:43.038Z,11.20
2022-12-20T06:35:14.585Z,11.20
2022-12-20T06:37:48.199Z,11.20
2022-12-20T06:40:18.759Z,11.20
2022-12-20T06:42:50.714Z,11.20
2022-12-20T06:45:23.358Z,11.20
2022-12-20T06:47:53.731Z,11.30
2022-12-20T06:50:25.326Z,11.30
2022-12-20T06:52:58.346Z,11.30
2022-12-20T06:55:28.848Z,11.40
2022-12-20T06:57:59.425Z,11.40
2022-12-20T07:00:30.528Z,11.40
2022-12-20T07:03:01.918Z,11.40
2022-12-20T07:05:32.382Z,11.40
2022-12-20T07:08:05.366Z,11.40
2022-12-20T07:10:37.941Z,11.40
2022-12-20T07:13:09.370Z,11.40
2022-12-20T07:15:39.704Z,11.40
2022-12-20T07:18:10.132Z,11.40
2022-12-20T07:20:40.771Z,11.40
2022-12-20T07:23:13.747Z,11.40
2022-12-20T07:25:44.037Z,11.40
2022-12-20T07:28:14.349Z,11.30
2022-12-20T07:30:44.640Z,11.40
2022-12-20T07:33:15.029Z,11.40
2022-12-20T07:35:49.523Z,11.30
2022-12-20T07:38:27.590Z,11.30
2022-12-20T07:40:57.918Z,11.20
2022-12-20T07:43:28.587Z,11.20
2022-12-20T07:46:00.423Z,11.20
2022-12-20T07:48:30.962Z,11.20
2022-12-20T07:51:05.485Z,11.10
2022-12-20T07:53:42.685Z,11.10
2022-12-20T07:56:15.525Z,11.10
2022-12-20T07:58:47.113Z,11.10
2022-12-20T08:01:17.527Z,11.00
2022-12-20T08:03:50.789Z,11.00
2022-12-20T08:06:22.218Z,11.00
2022-12-20T08:09:00.831Z,11.00
2022-12-20T08:11:32.523Z,11.00
2022-12-20T08:14:03.134Z,11.00
2022-12-20T08:16:34.118Z,11.00
2022-12-20T08:19:04.716Z,11.00
2022-12-20T08:21:35.026Z,11.00
2022-12-20T08:24:08.508Z,11.00
2022-12-20T08:26:41.928Z,11.00
2022-12-20T08:29:12.339Z,10.90
2022-12-20T08:31:49.386Z,10.90
2022-12-20T08:34:21.419Z,10.90
2022-12-20T08:36:51.785Z,11.00
2022-12-20T08:39:24.915Z,10.90
2022-12-20T08:41:55.236Z,10.90
2022-12-20T08:44:25.886Z,10.90
2022-12-20T08:46:56.501Z,10.90
2022-12-20T08:49:26.947Z,10.90
2022-12-20T08:51:57.389Z,11.00
2022-12-20T08:54:30.596Z,10.90
2022-12-20T08:57:00.906Z,10.90
2022-12-20T08:59:31.325Z,10.90
2022-12-20T09:02:01.795Z,11.00
2022-12-20T09:04:32.605Z,11.00
2022-12-20T09:07:02.956Z,11.00
2022-12-20T09:09:36.126Z,11.00
2022-12-20T09:12:07.897Z,11.00
2022-12-20T09:14:38.440Z,11.10
2022-12-20T09:17:08.951Z,11.10
2022-12-20T09:19:39.384Z,11.10
2022-12-20T09:22:09.859Z,11.10
2022-12-20T09:24:43.750Z,11.00
2022-12-20T09:27:14.149Z,11.10
2022-12-20T09:29:44.649Z,11.10
2022-12-20T09:32:15.115Z,11.10
2022-12-20T09:34:45.691Z,11.20
2022-12-20T09:37:16.081Z,11.10
2022-12-20T09:39:51.674Z,11.10
2022-12-20T09:42:25.536Z,11.20
2022-12-20T09:44:58.592Z,11.20
2022-12-20T09:47:29.559Z,11.20
2022-12-20T09:50:01.227Z,11.20
2022-12-20T09:52:50.176Z,11.20
2022-12-20T09:55:30.137Z,11.20
2022-12-20T09:58:13.729Z,11.20
2022-12-20T10:00:53.246Z,11.20
2022-12-20T10:03:29.242Z,11.10
2022-12-20T10:06:03.482Z,11.10
2022-12-20T10:08:48.020Z,11.10
2022-12-20T10:11:43.503Z,11.10
2022-12-20T10:14:30.323Z,11.10
2022-12-20T10:17:05.365Z,11.10
2022-12-20T10:20:01.185Z,11.10
2022-12-20T10:22:36.963Z,11.10
2022-12-20T10:25:23.104Z,11.10
2022-12-20T10:27:59.953Z,11.10
2022-12-20T10:30:31.964Z,11.10
2022-12-20T10:33:02.927Z,11.10
2022-12-20T10:35:37.087Z,11.20
2022-12-20T10:38:12.644Z,11.10
2022-12-20T10:41:19.626Z,11.10
2022-12-20T10:43:46.470Z,11.10
2022-12-20T10:46:19.610Z,11.10
2022-12-20T10:48:51.843Z,11.10
2022-12-20T10:51:23.416Z,11.10
2022-12-20T10:54:00.213Z,11.20
2022-12-20T10:56:32.135Z,11.10
2022-12-20T10:59:23.997Z,11.10
2022-12-20T11:01:54.657Z,11.10
2022-12-20T11:04:31.016Z,11.10
2022-12-20T11:07:02.414Z,11.10
2022-12-20T11:09:35.212Z,11.10
2022-12-20T11:12:10.766Z,11.10
2022-12-20T11:14:45.808Z,11.10
2022-12-20T11:17:27.884Z,11.10
2022-12-20T11:20:11.119Z,11.10
2022-12-20T11:22:51.300Z,11.10
2022-12-20T11:25:34.108Z,11.10
2022-12-20T11:28:23.641Z,11.10
2022-12-20T11:31:12.173Z,11.10
2022-12-20T11:33:56.340Z,11.10
2022-12-20T11:36:35.660Z,11.10
2022-12-20T11:39:15.906Z,11.10
2022-12-20T11:41:53.307Z,11.10
2022-12-20T11:44:33.205Z,11.20
2022-12-20T11:47:34.990Z,11.10
2022-12-20T11:50:21.773Z,11.10
2022-12-20T11:52:57.116Z,11.10
2022-12-20T11:55:31.077Z,11.10
2022-12-20T11:58:18.688Z,11.10
2022-12-20T12:00:53.693Z,11.10
2022-12-20T12:03:33.488Z,11.10
2022-12-20T12:06:09.151Z,11.00
2022-12-20T12:08:47.143Z,11.00
2022-12-20T12:14:24.633Z,11.00
2022-12-20T12:16:57.301Z,11.00
2022-12-20T12:19:32.970Z,11.00
2022-12-20T12:22:08.555Z,11.00
2022-12-20T12:24:45.264Z,11.00
2022-12-20T12:27:23.492Z,11.00
2022-12-20T12:29:54.628Z,11.00
2022-12-20T12:32:32.646Z,11.00
2022-12-20T12:35:23.007Z,11.00
2022-12-20T12:38:02.245Z,11.00
2022-12-20T12:40:52.464Z,11.00
2022-12-20T12:43:48.537Z,11.00
2022-12-20T12:46:23.044Z,11.00
2022-12-20T12:48:59.845Z,11.00
2022-12-20T12:51:37.141Z,10.90
2022-12-20T12:54:20.432Z,10.90
2022-12-20T12:56:51.897Z,10.90
2022-12-20T12:59:46.151Z,10.90
2022-12-20T13:02:38.593Z,10.90
2022-12-20T13:05:41.927Z,10.90
2022-12-20T13:08:21.612Z,10.90
2022-12-20T13:11:16.008Z,10.90
2022-12-20T13:13:46.359Z,10.90
2022-12-20T13:17:09.344Z,10.90
2022-12-20T13:19:39.835Z,10.90
2022-12-20T13:22:24.944Z,10.90
2022-12-20T13:25:04.067Z,10.90
2022-12-20T13:27:39.468Z,10.90
2022-12-20T13:30:29.270Z,10.90
2022-12-20T13:33:27.604Z,10.90
2022-12-20T13:36:04.662Z,10.90
2022-12-20T13:39:03.332Z,10.80
2022-12-20T13:41:54.033Z,10.80
2022-12-20T13:44:45.929Z,10.80
2022-12-20T13:47:33.065Z,10.90
2022-12-20T13:50:04.923Z,10.90
2022-12-20T13:52:37.006Z,10.80
2022-12-20T13:55:20.393Z,10.80
2022-12-20T13:57:55.234Z,10.80
2022-12-20T14:00:28.341Z,10.80
2022-12-20T14:03:00.516Z,10.90
2022-12-20T14:05:36.011Z,10.90
2022-12-20T14:08:09.984Z,10.80
2022-12-20T14:10:40.921Z,10.90
2022-12-20T14:13:24.548Z,10.90
2022-12-20T14:15:56.567Z,10.80
2022-12-20T14:18:28.478Z,10.90
2022-12-20T14:21:03.931Z,10.90
2022-12-20T14:23:40.217Z,10.90
2022-12-20T14:26:15.022Z,10.80
2022-12-20T14:28:50.285Z,10.80
2022-12-20T14:31:29.077Z,10.80
2022-12-20T14:34:08.415Z,10.80
2022-12-20T14:36:39.073Z,10.90
2022-12-20T14:39:26.367Z,10.80
2022-12-20T14:42:01.541Z,10.80
2022-12-20T14:44:35.319Z,10.80
2022-12-20T14:47:17.025Z,10.80
2022-12-20T14:49:52.701Z,10.80
2022-12-20T14:52:33.331Z,10.80
2022-12-20T14:55:10.539Z,10.80
2022-12-20T14:57:52.036Z,10.90
2022-12-20T15:00:31.703Z,10.80
2022-12-20T15:03:05.691Z,10.80
2022-12-20T15:05:52.439Z,10.80
2022-12-20T15:08:27.483Z,10.80
2022-12-20T15:11:04.051Z,10.80
2022-12-20T15:13:37.574Z,10.80
2022-12-20T15:16:18.641Z,10.80
2022-12-20T15:18:49.861Z,10.80
2022-12-20T15:21:28.185Z,10.80
2022-12-20T15:23:59.844Z,10.80
2022-12-20T15:26:32.523Z,10.80
2022-12-20T15:29:03.165Z,10.80
2022-12-20T15:31:38.068Z,10.80
2022-12-20T15:34:17.286Z,10.80
2022-12-20T15:36:47.694Z,10.80
2022-12-20T15:39:18.491Z,10.80
2022-12-20T15:41:51.402Z,10.80
2022-12-20T15:44:25.903Z,10.80
2022-12-20T15:46:59.040Z,10.80
2022-12-20T15:49:32.525Z,10.80
2022-12-20T15:52:03.141Z,10.80
2022-12-20T15:54:35.863Z,10.70
2022-12-20T15:57:08.462Z,10.70
2022-12-20T16:02:33.274Z,10.70
2022-12-20T16:05:04.475Z,10.70
2022-12-20T16:07:34.835Z,10.70
2022-12-20T16:10:05.288Z,10.70
2022-12-20T16:12:38.814Z,10.70
2022-12-20T16:15:14.731Z,10.70
2022-12-20T16:17:47.692Z,10.70
2022-12-20T16:20:19.529Z,10.70
2022-12-20T16:22:49.977Z,10.80
2022-12-20T16:25:28.898Z,10.70
2022-12-20T16:27:59.655Z,10.70
2022-12-20T16:30:30.488Z,10.80
2022-12-20T16:33:03.542Z,10.80
2022-12-20T16:35:36.446Z,10.80
2022-12-20T16:38:07.349Z,10.80
2022-12-20T16:40:37.706Z,10.80
2022-12-20T16:43:08.139Z,10.80
2022-12-20T16:45:38.566Z,10.80
2022-12-20T16:48:12.582Z,10.80
2022-12-20T16:50:43.623Z,10.80
2022-12-20T16:53:19.177Z,10.80
2022-12-20T16:55:49.583Z,10.80
2022-12-20T16:58:19.988Z,10.90
2022-12-20T17:00:51.408Z,10.80
2022-12-20T17:03:24.681Z,10.90
2022-12-20T17:05:57.400Z,10.80
2022-12-20T17:11:19.021Z,10.90
2022-12-20T17:13:51.492Z,10.90
2022-12-20T17:16:22.841Z,10.90
2022-12-20T17:18:59.815Z,10.90
2022-12-20T17:24:23.711Z,10.90
2022-12-20T17:26:55.455Z,10.90
2022-12-20T17:29:25.929Z,10.90
2022-12-20T17:31:56.492Z,10.90
2022-12-20T17:34:30.863Z,10.90
2022-12-20T17:37:02.041Z,10.90
2022-12-20T17:39:32.423Z,10.90
2022-12-20T17:42:02.748Z,10.90
2022-12-20T17:44:33.178Z,10.90
2022-12-20T17:47:03.605Z,10.90
2022-12-20T17:49:36.701Z,10.90
2022-12-20T17:52:07.635Z,10.90
2022-12-20T17:54:40.278Z,10.90
2022-12-20T17:57:17.099Z,10.90
2022-12-20T17:59:47.574Z,10.90
2022-12-20T18:02:24.772Z,10.90
2022-12-20T18:04:58.023Z,10.90
2022-12-20T18:07:28.558Z,10.90
2022-12-20T18:09:59.402Z,10.90
2022-12-20T18:12:35.655Z,10.90
2022-12-20T18:15:10.379Z,10.90
2022-12-20T18:17:41.084Z,10.90
2022-12-20T18:20:15.228Z,10.90
2022-12-20T18:22:45.533Z,10.90
2022-12-20T18:25:18.436Z,10.90
2022-12-20T18:27:48.987Z,10.90
2022-12-20T18:30:19.421Z,10.90
2022-12-20T18:32:49.809Z,10.90
2022-12-20T18:35:22.833Z,10.90
2022-12-20T18:37:53.357Z,10.90
2022-12-20T18:40:26.126Z,10.90
2022-12-20T18:43:01.124Z,10.90
2022-12-20T18:45:37.810Z,10.80
2022-12-20T18:48:08.295Z,10.90
2022-12-20T18:50:42.099Z,10.90
2022-12-20T18:53:12.557Z,10.90
2022-12-20T18:55:43.056Z,10.90
2022-12-20T18:58:14.454Z,10.90
2022-12-20T19:00:45.430Z,10.90
2022-12-20T19:03:16.041Z,10.90
2022-12-20T19:05:49.101Z,10.90
2022-12-20T19:08:19.525Z,10.90
2022-12-20T19:10:50.217Z,10.90
2022-12-20T19:13:21.397Z,11.00
2022-12-20T19:15:51.732Z,11.00
2022-12-20T19:18:22.163Z,11.00
2022-12-20T19:20:55.258Z,11.00
2022-12-20T19:23:25.683Z,11.00
2022-12-20T19:26:01.227Z,11.00
2022-12-20T19:28:35.960Z,11.00
2022-12-20T19:31:13.005Z,11.00
2022-12-20T19:33:48.695Z,11.00
2022-12-20T19:36:25.160Z,11.00
2022-12-20T19:38:58.242Z,11.00
2022-12-20T19:41:30.541Z,11.00
2022-12-20T19:44:01.672Z,11.00
2022-12-20T19:46:32.138Z,11.00
2022-12-20T19:49:02.840Z,11.00
2022-12-20T19:51:36.747Z,11.00
2022-12-20T19:54:07.534Z,11.00
2022-12-20T19:56:38.360Z,11.00
2022-12-20T19:59:09.303Z,11.00
2022-12-20T20:01:39.884Z,11.00
2022-12-20T20:04:10.518Z,11.00
2022-12-20T20:06:43.910Z,11.00
2022-12-20T20:09:14.509Z,11.00
2022-12-20T20:11:45.269Z,11.00
2022-12-20T20:14:15.774Z,11.00
2022-12-20T20:16:46.567Z,11.00
2022-12-20T20:19:17.033Z,11.00
2022-12-20T20:21:50.596Z,11.00
2022-12-20T20:24:21.058Z,11.00
2022-12-20T20:26:51.760Z,11.00
2022-12-20T20:29:22.177Z,11.00
2022-12-20T20:31:52.883Z,11.00
2022-12-20T20:34:23.286Z,11.00
2022-12-20T20:36:56.307Z,11.00
2022-12-20T20:39:26.840Z,11.00
2022-12-20T20:41:57.249Z,11.00
2022-12-20T20:44:27.694Z,11.00
2022-12-20T20:46:58.195Z,11.00
2022-12-20T20:49:28.633Z,11.00
2022-12-20T20:52:01.647Z,11.00
2022-12-20T20:54:32.301Z,11.00
2022-12-20T20:57:02.807Z,11.00
2022-12-20T20:59:33.185Z,11.00
2022-12-20T21:02:03.629Z,11.00
2022-12-20T21:04:34.207Z,11.00
2022-12-20T21:07:07.196Z,11.00
2022-12-20T21:09:37.609Z,11.00
2022-12-20T21:12:08.710Z,11.00
2022-12-20T21:15:19.933Z,11.00
2022-12-20T21:17:29.605Z,11.00
2022-12-20T21:20:00.005Z,11.00
2022-12-20T21:22:33.002Z,11.00
2022-12-20T21:25:04.453Z,11.00
2022-12-20T21:27:34.978Z,10.90
2022-12-20T21:30:05.812Z,11.10
2022-12-20T21:32:36.277Z,11.00
2022-12-20T21:35:06.694Z,11.00
2022-12-20T21:37:39.886Z,11.10
2022-12-20T21:40:12.352Z,11.10
2022-12-20T21:42:42.677Z,11.10
2022-12-20T21:45:16.005Z,11.10
2022-12-20T21:47:46.650Z,11.10
2022-12-20T21:50:17.160Z,11.10
2022-12-20T21:52:50.098Z,11.10
2022-12-20T21:55:20.672Z,11.10
2022-12-20T21:57:51.015Z,11.10
2022-12-20T22:00:23.216Z,11.10
2022-12-20T22:02:54.218Z,11.10
2022-12-20T22:05:24.673Z,11.10
2022-12-20T22:07:58.547Z,11.10
2022-12-20T22:10:29.087Z,11.10
2022-12-20T22:12:59.430Z,11.10
2022-12-20T22:15:30.064Z,11.10
2022-12-20T22:18:00.401Z,11.10
2022-12-20T22:20:30.921Z,11.10
2022-12-20T22:23:04.514Z,11.20
2022-12-20T22:25:38.185Z,11.10
2022-12-20T22:28:09.262Z,11.10
2022-12-20T22:30:44.338Z,11.10
2022-12-20T22:33:14.768Z,11.10
2022-12-20T22:35:45.288Z,11.20
2022-12-20T22:38:18.767Z,11.20
2022-12-20T22:40:49.195Z,11.10
2022-12-20T22:43:19.696Z,11.10
2022-12-20T22:46:00.193Z,11.10
2022-12-20T22:48:30.745Z,11.10
2022-12-20T22:51:05.687Z,11.20
2022-12-20T22:53:39.868Z,11.20
2022-12-20T22:56:10.839Z,11.20
2022-12-20T22:58:41.918Z,11.10
2022-12-20T23:01:15.403Z,11.10
2022-12-20T23:03:46.408Z,11.10
2022-12-20T23:06:19.598Z,11.10
2022-12-20T23:08:52.686Z,11.10
2022-12-20T23:11:37.762Z,11.10
2022-12-20T23:14:21.009Z,11.10
2022-12-20T23:16:51.584Z,11.10
2022-12-20T23:19:23.062Z,11.10
2022-12-20T23:22:05.899Z,11.10
2022-12-20T23:24:38.885Z,11.10
2022-12-20T23:27:09.199Z,11.10
2022-12-20T23:29:39.533Z,11.10
2022-12-20T23:32:10.009Z,11.10
2022-12-20T23:34:40.385Z,11.10
2022-12-20T23:37:10.820Z,11.10
2022-12-20T23:39:43.806Z,11.10
2022-12-20T23:42:14.161Z,11.10
2022-12-20T23:44:44.886Z,11.10
2022-12-20T23:47:18.812Z,11.10
2022-12-20T23:49:49.556Z,11.10
2022-12-20T23:52:20.176Z,11.10
2022-12-20T23:54:53.147Z,11.10
2022-12-20T23:57:23.479Z,11.10
2022-12-20T23:59:53.844Z,11.10
